Time;durP1;ratioP1;P1;durP2;ratioP2;P2;SDS_P1;SDS_P2;PMS_P1;PMS_P2;Temp;Humidity;BMP_temperature;BMP_pressure;BME280_temperature;BME280_humidity;BME280_pressure;Samples;Min_cycle;Max_cycle;Signal;HPM_P1;HPM_P2
2022/02/02 00:00:43;;;;;;;30.08;3.65;;;5.40;99.90;;;;;;5091832;28;20325;-60
2022/02/02 00:03:10;;;;;;;20.20;3.95;;;5.40;99.90;;;;;;5087360;28;20085;-60
2022/02/02 00:08:19;;;;;;;14.50;3.65;;;5.50;99.90;;;;;;5102570;28;20533;-60
2022/02/02 00:16:08;;;;;;;19.60;3.33;;;5.40;99.90;;;;;;5097678;28;20064;-60
2022/02/02 00:18:52;;;;;;;14.45;2.75;;;5.30;99.90;;;;;;5099186;28;20026;-60
2022/02/02 00:21:29;;;;;;;20.65;3.85;;;5.30;99.90;;;;;;5095497;28;20040;-60
2022/02/02 00:24:03;;;;;;;15.93;3.65;;;5.20;99.90;;;;;;5104260;28;20041;-60
2022/02/02 00:26:37;;;;;;;14.05;3.17;;;5.30;99.90;;;;;;5091442;28;20123;-60
2022/02/02 00:29:10;;;;;;;16.75;3.22;;;5.30;99.90;;;;;;5102203;28;20040;-59
2022/02/02 00:31:41;;;;;;;16.85;3.10;;;5.20;99.90;;;;;;5096359;28;20031;-59
2022/02/02 00:34:11;;;;;;;27.58;4.65;;;5.20;99.90;;;;;;5096385;28;20043;-60
2022/02/02 00:36:46;;;;;;;17.42;3.50;;;5.30;99.90;;;;;;5100957;28;20035;-59
2022/02/02 00:39:12;;;;;;;22.65;3.88;;;5.30;99.90;;;;;;5087470;28;20499;-60
2022/02/02 00:41:37;;;;;;;20.30;2.88;;;5.30;99.90;;;;;;5104543;28;20039;-60
2022/02/02 00:44:03;;;;;;;19.85;3.45;;;5.30;99.90;;;;;;5088192;28;20540;-60
2022/02/02 00:46:30;;;;;;;18.88;3.00;;;5.30;99.90;;;;;;5098643;28;20433;-60
2022/02/02 00:49:04;;;;;;;26.98;4.70;;;5.30;99.90;;;;;;5103513;28;20028;-60
2022/02/02 00:51:53;;;;;;;14.95;3.50;;;5.30;99.90;;;;;;5097399;28;20035;-60
2022/02/02 00:54:21;;;;;;;19.90;4.63;;;5.30;99.90;;;;;;5097979;28;20035;-60
2022/02/02 00:56:47;;;;;;;15.20;2.70;;;5.30;99.90;;;;;;5106262;28;20169;-60
2022/02/02 00:59:13;;;;;;;17.73;3.03;;;5.30;99.90;;;;;;5100785;28;20032;-60
2022/02/02 01:01:39;;;;;;;18.52;3.40;;;5.30;99.90;;;;;;5109609;28;20034;-60
2022/02/02 01:04:05;;;;;;;24.63;3.28;;;5.30;99.90;;;;;;5102320;28;20046;-59
2022/02/02 01:06:35;;;;;;;17.38;3.17;;;5.30;99.90;;;;;;5109979;28;20407;-59
2022/02/02 01:15:07;;;;;;;20.40;3.95;;;5.30;99.90;;;;;;5100337;28;20092;-59
2022/02/02 01:19:58;;;;;;;15.00;3.75;;;5.30;99.90;;;;;;5092088;28;20384;-60
2022/02/02 01:27:47;;;;;;;26.13;4.40;;;5.30;99.90;;;;;;5106257;28;20035;-60
2022/02/02 01:27:55;;;;;;;21.33;4.07;;;5.30;99.90;;;;;;5092217;28;20057;-60
2022/02/02 01:30:23;;;;;;;19.55;3.40;;;5.20;99.90;;;;;;5109174;28;20052;-60
2022/02/02 01:32:49;;;;;;;18.35;2.90;;;5.30;99.90;;;;;;5108238;28;20028;-59
2022/02/02 01:35:17;;;;;;;17.02;3.65;;;5.30;99.90;;;;;;5110239;28;20070;-60
2022/02/02 01:37:45;;;;;;;22.40;3.58;;;5.30;99.90;;;;;;5093455;28;20509;-60
2022/02/02 01:40:27;;;;;;;17.88;3.70;;;5.40;99.90;;;;;;5111610;28;20027;-60
2022/02/02 01:43:07;;;;;;;26.20;5.00;;;5.30;99.90;;;;;;5100050;28;20048;-60
2022/02/02 01:45:37;;;;;;;25.08;5.10;;;5.40;99.90;;;;;;5091508;28;20035;-60
2022/02/02 01:48:26;;;;;;;19.83;4.63;;;5.40;99.90;;;;;;5109175;28;20038;-60
2022/02/02 01:51:30;;;;;;;26.50;4.30;;;5.50;99.90;;;;;;5090378;28;20024;-60
2022/02/02 01:54:03;;;;;;;21.17;4.32;;;5.50;99.90;;;;;;5102344;28;20020;-60
2022/02/02 01:56:29;;;;;;;23.83;5.07;;;5.50;99.90;;;;;;5093037;28;20043;-60
2022/02/02 01:59:08;;;;;;;21.55;3.65;;;5.50;99.90;;;;;;5097410;28;20039;-60
2022/02/02 02:01:33;;;;;;;20.83;4.20;;;5.50;99.90;;;;;;5093792;28;20251;-60
2022/02/02 02:03:59;;;;;;;19.25;3.78;;;5.40;99.90;;;;;;5108564;28;20441;-59
2022/02/02 02:06:25;;;;;;;33.17;6.00;;;5.40;99.90;;;;;;5106448;28;20065;-60
2022/02/02 02:08:51;;;;;;;28.27;4.90;;;5.40;99.90;;;;;;5108849;28;20024;-60
2022/02/02 02:11:19;;;;;;;24.48;4.88;;;5.40;99.90;;;;;;5105436;28;20020;-60
2022/02/02 02:16:30;;;;;;;19.05;4.38;;;5.40;99.90;;;;;;5104325;28;20057;-60
2022/02/02 02:18:58;;;;;;;25.08;3.88;;;5.40;99.90;;;;;;5108567;28;20019;-60
2022/02/02 02:21:24;;;;;;;27.65;4.30;;;5.40;99.90;;;;;;5106449;28;20078;-60
2022/02/02 02:23:50;;;;;;;27.33;3.83;;;5.40;99.90;;;;;;5106883;28;20047;-60
2022/02/02 02:26:25;;;;;;;17.85;3.60;;;5.30;99.90;;;;;;5097400;28;20023;-60
2022/02/02 02:31:40;;;;;;;15.57;4.35;;;5.30;99.90;;;;;;5092110;28;20566;-60
2022/02/02 02:55:55;;;;;;;18.67;4.15;;;5.60;99.90;;;;;;5101823;28;20510;-60
2022/02/02 02:58:41;;;;;;;12.98;3.08;;;5.60;99.90;;;;;;5107890;28;20108;-60
2022/02/02 03:31:12;;;;;;;17.00;3.45;;;5.40;99.90;;;;;;5110376;28;20501;-60
2022/02/02 03:53:28;;;;;;;26.38;6.22;;;5.30;99.90;;;;;;5082408;28;20039;-49
2022/02/02 03:55:52;;;;;;;26.83;3.72;;;5.30;99.90;;;;;;5088865;28;20024;-46
2022/02/02 03:58:34;;;;;;;21.73;4.78;;;5.30;99.90;;;;;;5094336;28;20027;-46
2022/02/02 04:04:03;;;;;;;24.38;3.42;;;5.30;99.90;;;;;;5098094;28;20469;-48
2022/02/02 04:06:28;;;;;;;16.63;4.32;;;5.30;99.90;;;;;;5109169;28;20024;-47
2022/02/02 04:08:54;;;;;;;28.65;4.35;;;5.20;99.90;;;;;;5107391;28;20073;-49
2022/02/02 04:11:37;;;;;;;26.30;4.30;;;5.20;99.90;;;;;;5090691;28;20425;-47
2022/02/02 04:52:14;;;;;;;24.23;4.93;;;5.00;99.90;;;;;;5092661;28;20039;-50
2022/02/02 04:54:46;;;;;;;25.17;4.35;;;4.90;99.90;;;;;;5109561;28;20036;-46
2022/02/02 04:57:48;;;;;;;25.83;5.00;;;4.90;99.90;;;;;;5092218;28;20052;-52
2022/02/02 05:03:38;;;;;;;24.33;4.97;;;4.90;99.90;;;;;;5094312;28;20445;-47
2022/02/02 05:06:12;;;;;;;28.33;5.07;;;5.00;99.90;;;;;;5112183;28;20498;-50
2022/02/02 05:15:10;;;;;;;33.33;4.93;;;5.10;99.90;;;;;;5097650;28;20031;-52
2022/02/02 05:41:36;;;;;;;17.65;3.30;;;5.20;99.90;;;;;;5106022;28;20039;-53
2022/02/02 05:51:51;;;;;;;18.77;3.08;;;5.00;99.90;;;;;;5111872;28;20034;-46
2022/02/02 05:54:17;;;;;;;20.52;3.55;;;5.00;99.90;;;;;;5109363;28;20027;-50
2022/02/02 05:56:47;;;;;;;21.92;4.35;;;5.00;99.90;;;;;;5111774;28;20102;-50
2022/02/02 05:59:18;;;;;;;29.00;4.00;;;5.10;99.90;;;;;;5090211;28;20690;-51
2022/02/02 06:01:51;;;;;;;12.73;3.67;;;5.00;99.90;;;;;;5111598;28;20031;-47
2022/02/02 06:04:24;;;;;;;17.38;3.78;;;5.00;99.90;;;;;;5090652;28;20105;-50
2022/02/02 06:06:52;;;;;;;20.70;3.50;;;5.00;99.90;;;;;;5111463;28;20020;-47
2022/02/02 06:09:19;;;;;;;26.02;4.10;;;4.90;99.90;;;;;;5109139;28;20051;-48
2022/02/02 06:11:50;;;;;;;24.30;4.78;;;4.90;99.90;;;;;;5111617;28;20023;-47
2022/02/02 06:14:18;;;;;;;25.00;3.72;;;4.90;99.90;;;;;;5090351;28;20437;-48
2022/02/02 06:16:44;;;;;;;26.35;4.38;;;4.90;99.90;;;;;;5111330;28;20078;-46
2022/02/02 06:19:09;;;;;;;24.73;4.10;;;4.90;99.90;;;;;;5107527;28;20499;-47
2022/02/02 06:21:36;;;;;;;22.10;3.78;;;4.90;99.90;;;;;;5111152;28;20097;-47
2022/02/02 06:24:17;;;;;;;23.20;4.28;;;4.90;99.90;;;;;;5110980;28;20039;-46
2022/02/02 06:26:47;;;;;;;27.92;4.25;;;4.90;99.90;;;;;;5111185;28;20024;-47
2022/02/02 06:29:14;;;;;;;14.88;3.42;;;5.00;99.90;;;;;;5108853;28;20058;-49
2022/02/02 06:31:41;;;;;;;16.75;3.50;;;5.00;99.90;;;;;;5110968;28;20175;-46
2022/02/02 06:34:09;;;;;;;19.88;3.80;;;4.90;99.90;;;;;;5108650;28;20038;-47
2022/02/02 06:36:37;;;;;;;24.98;3.92;;;5.00;99.90;;;;;;5111001;28;20265;-46
2022/02/02 06:39:08;;;;;;;24.23;4.35;;;5.00;99.90;;;;;;5110481;28;20558;-46
2022/02/02 06:41:35;;;;;;;21.50;3.97;;;5.00;99.90;;;;;;5110976;28;20031;-46
2022/02/02 06:44:01;;;;;;;18.27;3.85;;;5.10;99.90;;;;;;5106701;28;20391;-46
2022/02/02 06:46:31;;;;;;;19.20;3.63;;;5.10;99.90;;;;;;5108733;28;20114;-46
2022/02/02 06:48:59;;;;;;;19.30;3.25;;;5.10;99.90;;;;;;5110653;28;20047;-47
2022/02/02 06:54:40;;;;;;;16.08;3.35;;;5.10;99.90;;;;;;5089161;28;20035;-46
2022/02/02 06:57:22;;;;;;;16.58;3.80;;;5.10;99.90;;;;;;5109442;28;20047;-47
2022/02/02 07:02:46;;;;;;;11.27;3.00;;;5.20;99.90;;;;;;5110171;28;20094;-46
2022/02/02 07:06:09;;;;;;;12.77;2.55;;;5.20;99.90;;;;;;5097316;28;20066;-47
2022/02/02 07:09:30;;;;;;;12.02;3.15;;;5.20;99.90;;;;;;5078746;28;20028;-47
2022/02/02 07:11:25;;;;;;;10.93;2.95;;;5.20;99.90;;;;;;5074289;28;20119;-48
2022/02/02 07:16:38;;;;;;;16.13;3.33;;;5.20;99.90;;;;;;5106397;28;20107;-49
2022/02/02 07:19:13;;;;;;;18.52;3.65;;;5.30;99.90;;;;;;5103572;28;20538;-48
2022/02/02 07:24:55;;;;;;;20.25;3.97;;;5.30;99.90;;;;;;5106421;28;20563;-46
2022/02/02 07:27:37;;;;;;;21.55;4.25;;;5.40;99.90;;;;;;5108708;28;20388;-46
2022/02/02 07:30:42;;;;;;;18.42;2.92;;;5.40;99.90;;;;;;5104252;28;20107;-47
2022/02/02 07:33:14;;;;;;;17.52;3.42;;;5.40;99.90;;;;;;5089443;28;20016;-48
2022/02/02 07:35:55;;;;;;;10.15;2.92;;;5.50;99.90;;;;;;5108653;28;20024;-49
2022/02/02 07:38:25;;;;;;;21.80;3.30;;;5.60;99.90;;;;;;5105825;28;20032;-46
2022/02/02 07:40:53;;;;;;;16.65;3.72;;;5.70;99.90;;;;;;5107501;28;20051;-46
2022/02/02 07:43:25;;;;;;;12.07;2.75;;;5.70;99.90;;;;;;5098701;28;20035;-47
2022/02/02 07:46:02;;;;;;;17.48;2.97;;;5.70;99.90;;;;;;5106875;28;20032;-47
2022/02/02 07:48:29;;;;;;;20.13;3.85;;;5.80;99.90;;;;;;5106662;28;20511;-46
2022/02/02 07:50:57;;;;;;;10.52;2.38;;;6.20;99.90;;;;;;5108757;28;20023;-48
2022/02/02 07:53:32;;;;;;;15.77;2.85;;;6.50;99.90;;;;;;5106478;28;20529;-48
2022/02/02 07:56:00;;;;;;;16.25;3.10;;;6.70;99.90;;;;;;5108710;28;20086;-47
2022/02/02 07:58:27;;;;;;;15.52;2.80;;;6.90;99.90;;;;;;5106329;28;20096;-47
2022/02/02 08:00:53;;;;;;;16.67;3.85;;;6.90;99.90;;;;;;5108098;28;20031;-48
2022/02/02 08:03:19;;;;;;;17.10;3.28;;;7.20;99.90;;;;;;5105325;28;20050;-48
2022/02/02 08:05:48;;;;;;;15.18;3.38;;;7.20;99.90;;;;;;5108150;28;20028;-48
2022/02/02 08:10:48;;;;;;;23.48;4.03;;;6.80;99.90;;;;;;5108261;28;20057;-48
2022/02/02 08:13:37;;;;;;;18.25;3.53;;;6.70;99.90;;;;;;5105991;28;20026;-50
2022/02/02 08:16:06;;;;;;;17.80;3.38;;;6.70;99.90;;;;;;5108319;28;20095;-46
2022/02/02 08:18:32;;;;;;;16.92;3.10;;;6.70;99.90;;;;;;5105951;28;20023;-46
2022/02/02 08:20:57;;;;;;;7.95;2.65;;;6.80;99.90;;;;;;5106075;28;20039;-48
2022/02/02 08:23:23;;;;;;;15.32;3.33;;;7.20;99.90;;;;;;5105925;28;20039;-47
2022/02/02 08:25:48;;;;;;;16.08;2.95;;;7.70;99.90;;;;;;5107668;28;20172;-46
2022/02/02 08:28:17;;;;;;;15.20;2.60;;;8.70;99.90;;;;;;5105667;28;20054;-46
2022/02/02 08:30:43;;;;;;;21.70;3.35;;;8.80;99.90;;;;;;5107658;28;20027;-48
2022/02/02 08:33:14;;;;;;;10.43;2.20;;;8.30;99.90;;;;;;5105037;28;20028;-47
2022/02/02 08:35:44;;;;;;;18.88;2.92;;;7.90;99.90;;;;;;5107635;28;20015;-48
2022/02/02 08:38:35;;;;;;;9.93;2.30;;;7.50;99.90;;;;;;5089168;28;20123;-46
2022/02/02 08:41:10;;;;;;;12.43;2.92;;;7.30;99.90;;;;;;5107590;28;20031;-49
2022/02/02 08:44:22;;;;;;;9.13;2.20;;;7.80;99.90;;;;;;5101676;28;20526;-48
2022/02/02 08:46:30;;;;;;;16.08;2.17;;;7.60;99.90;;;;;;5101195;28;20032;-46
2022/02/02 08:48:57;;;;;;;9.65;2.88;;;7.30;99.90;;;;;;5105623;28;20043;-46
2022/02/02 08:52:03;;;;;;;11.10;2.75;;;7.20;99.90;;;;;;5087757;28;20100;-47
2022/02/02 08:59:27;;;;;;;16.40;2.45;;;7.50;99.90;;;;;;5086379;28;20083;-47
2022/02/02 09:02:32;;;;;;;10.35;2.33;;;7.70;99.90;;;;;;5105333;28;20076;-49
2022/02/02 09:05:54;;;;;;;8.98;1.95;;;8.30;99.90;;;;;;5099634;28;20050;-48
2022/02/02 09:09:23;;;;;;;9.50;1.67;;;9.30;99.90;;;;;;5107343;28;20085;-46
2022/02/02 09:36:07;;;;;;;8.77;2.00;;;9.20;99.90;;;;;;5090221;28;20042;-49
2022/02/02 09:39:36;;;;;;;6.95;1.50;;;8.90;99.90;;;;;;5109865;28;20039;-50
2022/02/02 09:42:56;;;;;;;9.65;1.80;;;8.60;99.90;;;;;;5103767;28;20045;-48
2022/02/02 09:45:39;;;;;;;11.35;2.75;;;8.10;99.90;;;;;;5104884;28;20042;-61
2022/02/02 09:48:50;;;;;;;4.05;1.35;;;7.80;99.90;;;;;;5091550;28;20032;-60
2022/02/02 09:55:31;;;;;;;11.30;1.85;;;8.00;99.90;;;;;;5110299;28;20114;-60
2022/02/02 09:59:01;;;;;;;9.90;2.17;;;8.20;99.90;;;;;;5103306;28;20043;-60
2022/02/02 10:02:30;;;;;;;9.25;1.83;;;8.20;99.90;;;;;;5101222;28;20032;-61
2022/02/02 10:05:49;;;;;;;9.18;2.28;;;8.20;99.90;;;;;;5094086;28;20481;-60
2022/02/02 10:12:50;;;;;;;4.50;1.55;;;7.80;99.90;;;;;;5100454;28;20039;-61
2022/02/02 10:15:58;;;;;;;9.52;1.70;;;7.80;99.90;;;;;;5085692;28;20407;-60
2022/02/02 10:19:36;;;;;;;10.05;1.80;;;8.00;99.90;;;;;;5089487;28;20032;-61
2022/02/02 10:22:59;;;;;;;9.70;2.15;;;8.20;99.90;;;;;;5103315;28;20138;-60
2022/02/02 10:26:37;;;;;;;7.75;1.70;;;8.50;99.90;;;;;;5104560;28;20239;-60
2022/02/02 10:30:02;;;;;;;9.32;2.35;;;8.70;99.90;;;;;;5097303;28;20466;-61
2022/02/02 10:33:31;;;;;;;10.05;1.50;;;8.80;99.70;;;;;;5107649;28;20039;-60
2022/02/02 10:36:36;;;;;;;;;;;8.60;98.50;;;;;;5104206;28;20036;-60
2022/02/02 10:40:04;;;;;;;9.73;1.80;;;8.40;96.30;;;;;;5098314;28;19911;-60
2022/02/02 10:46:07;;;;;;;9.43;1.50;;;7.90;95.90;;;;;;5101661;28;20038;-60
2022/02/02 10:49:47;;;;;;;10.93;1.38;;;7.80;99.90;;;;;;5093613;28;20045;-61
2022/02/02 10:53:10;;;;;;;9.18;1.90;;;7.80;99.90;;;;;;5105029;28;20035;-60
2022/02/02 10:59:57;;;;;;;8.38;1.92;;;7.90;99.90;;;;;;5108863;28;20093;-61
2022/02/02 11:06:41;;;;;;;9.50;1.75;;;7.90;99.90;;;;;;5102880;28;20046;-61
2022/02/02 11:10:05;;;;;;;13.13;1.92;;;7.90;99.90;;;;;;5104808;28;20036;-61
2022/02/02 11:13:29;;;;;;;12.43;2.58;;;7.80;99.90;;;;;;5088690;28;20430;-62
2022/02/02 11:16:55;;;;;;;8.73;2.25;;;7.50;99.90;;;;;;5106421;28;20038;-61
2022/02/02 11:20:20;;;;;;;9.20;1.90;;;7.40;99.90;;;;;;5105107;28;20044;-61
2022/02/02 11:23:45;;;;;;;7.68;2.03;;;7.30;99.90;;;;;;5088792;28;20044;-61
2022/02/02 11:27:23;;;;;;;9.98;2.00;;;7.20;99.90;;;;;;5103878;28;20055;-61
2022/02/02 11:30:29;;;;;;;6.90;1.70;;;7.30;99.90;;;;;;5094637;28;20096;-60
2022/02/02 11:33:14;;;;;;;13.68;2.33;;;7.30;99.90;;;;;;5104962;28;20032;-60
2022/02/02 11:36:42;;;;;;;8.82;2.13;;;7.20;99.90;;;;;;5099114;28;20031;-60
2022/02/02 11:40:14;;;;;;;13.43;1.90;;;7.00;99.90;;;;;;5101977;28;20554;-61
2022/02/02 11:43:39;;;;;;;8.15;2.67;;;7.00;99.90;;;;;;5104025;28;20079;-59
2022/02/02 11:47:22;;;;;;;10.23;1.73;;;6.90;99.90;;;;;;5102107;28;20081;-60
2022/02/02 11:51:04;;;;;;;7.45;1.83;;;6.90;99.90;;;;;;5102498;28;20081;-60
2022/02/02 11:53:50;;;;;;;6.18;1.30;;;6.90;99.90;;;;;;5088371;28;20036;-60
2022/02/02 12:00:51;;;;;;;9.25;1.88;;;7.30;99.90;;;;;;5026933;28;20065;-59
2022/02/02 12:04:20;;;;;;;8.80;2.05;;;7.20;99.90;;;;;;5036708;28;20072;-60
2022/02/02 12:07:41;;;;;;;3.45;1.20;;;7.10;99.90;;;;;;5095825;28;20028;-61
2022/02/02 12:11:40;;;;;;;9.45;1.67;;;7.00;99.90;;;;;;5104416;28;20468;-60
2022/02/02 12:27:46;;;;;;;7.38;1.40;;;6.70;99.90;;;;;;5105848;28;20054;-61
2022/02/02 12:45:06;;;;;;;2.63;0.68;;;6.50;99.90;;;;;;5082344;28;20525;-62
2022/02/02 12:48:23;;;;;;;4.95;0.85;;;6.50;99.90;;;;;;5101551;28;20055;-64
2022/02/02 12:58:34;;;;;;;1.08;0.50;;;6.50;99.90;;;;;;5109758;28;20036;-64
2022/02/02 13:01:55;;;;;;;4.05;0.40;;;6.60;99.80;;;;;;5100741;28;20027;-63
2022/02/02 13:05:20;;;;;;;2.15;0.50;;;6.70;97.80;;;;;;5090926;28;20079;-64
2022/02/02 13:08:45;;;;;;;1.85;0.30;;;6.60;95.90;;;;;;5105822;28;20611;-63
2022/02/02 13:12:11;;;;;;;0.93;0.60;;;6.50;95.60;;;;;;5103947;28;20118;-64
2022/02/02 13:18:51;;;;;;;3.65;0.43;;;6.20;97.30;;;;;;5101085;28;20460;-63
2022/02/02 13:22:22;;;;;;;2.20;0.60;;;6.20;98.80;;;;;;5104229;28;20044;-64
2022/02/02 13:25:58;;;;;;;2.47;0.57;;;6.30;99.70;;;;;;5105562;28;20625;-63
2022/02/02 13:32:52;;;;;;;0.55;0.35;;;6.30;99.90;;;;;;5104690;28;20059;-63
2022/02/02 13:36:00;;;;;;;;;;;6.30;99.90;;;;;;5110975;28;20067;-64
2022/02/02 13:42:20;;;;;;;0.50;0.50;;;6.20;99.90;;;;;;5100745;28;19969;-64
2022/02/02 13:49:10;;;;;;;3.83;0.47;;;6.10;99.90;;;;;;5098834;28;20076;-63
2022/02/02 13:52:26;;;;;;;1.55;0.50;;;6.00;99.90;;;;;;5101194;28;20494;-63
2022/02/02 14:06:04;;;;;;;2.05;0.38;;;6.60;99.90;;;;;;5088770;28;20580;-64
2022/02/02 14:09:29;;;;;;;1.00;0.55;;;6.70;99.90;;;;;;5095354;28;20036;-64
2022/02/02 14:32:37;;;;;;;1.88;0.60;;;6.00;97.50;;;;;;5094111;28;20123;-65
2022/02/02 14:36:04;;;;;;;0.75;0.32;;;5.90;96.90;;;;;;5090497;28;20031;-66
2022/02/02 14:39:41;;;;;;;2.03;0.40;;;5.80;92.50;;;;;;5105683;28;20722;-64
2022/02/02 14:42:56;;;;;;;0.90;0.60;;;5.80;92.00;;;;;;5090403;28;20088;-64
2022/02/02 14:46:22;;;;;;;3.05;0.57;;;5.70;91.80;;;;;;5094023;28;20040;-64
2022/02/02 15:27:19;;;;;;;2.78;0.50;;;5.10;92.10;;;;;;5104929;28;20208;-65
2022/02/02 15:33:50;;;;;;;0.60;0.60;;;4.70;96.10;;;;;;5087331;28;20725;-64
2022/02/02 15:37:23;;;;;;;2.42;0.85;;;4.50;97.60;;;;;;5102499;28;20032;-65
2022/02/02 15:40:46;;;;;;;3.53;1.20;;;4.40;99.50;;;;;;5105623;28;20475;-64
2022/02/02 16:01:57;;;;;;;2.67;1.30;;;3.40;99.90;;;;;;5088747;28;20571;-66
2022/02/02 16:04:39;;;;;;;1.17;0.80;;;3.20;99.90;;;;;;5088463;28;20500;-66
2022/02/02 16:08:07;;;;;;;1.05;0.80;;;3.10;99.90;;;;;;5105283;28;20080;-66
2022/02/02 16:11:31;;;;;;;2.08;1.10;;;3.00;99.90;;;;;;5100332;28;20020;-66
2022/02/02 16:15:12;;;;;;;2.78;0.80;;;2.90;99.90;;;;;;5088587;28;20438;-66
2022/02/02 16:25:14;;;;;;;0.60;0.40;;;2.50;99.90;;;;;;5108811;28;20051;-66
2022/02/02 16:32:12;;;;;;;1.25;0.57;;;2.30;99.90;;;;;;5107867;28;20050;-66
2022/02/02 16:38:31;;;;;;;1.50;0.30;;;2.10;99.90;;;;;;5111116;28;20016;-67
2022/02/02 16:45:16;;;;;;;2.45;0.40;;;1.80;99.90;;;;;;5092400;28;20054;-66
2022/02/02 16:48:41;;;;;;;1.70;0.40;;;1.70;99.90;;;;;;5110785;28;20036;-66
2022/02/02 16:52:06;;;;;;;1.27;0.40;;;1.60;99.90;;;;;;5099434;28;20035;-66
2022/02/02 17:32:58;;;;;;;2.70;0.57;;;1.50;99.90;;;;;;5105007;28;20469;-67
2022/02/02 17:36:32;;;;;;;1.25;0.40;;;1.60;99.90;;;;;;5104845;28;20040;-66
2022/02/02 18:19:48;;;;;;;3.17;0.75;;;1.00;99.90;;;;;;5110818;28;20050;-65
2022/02/02 18:23:24;;;;;;;1.65;0.90;;;1.30;99.90;;;;;;5107894;28;20036;-65
2022/02/02 18:30:00;;;;;;;5.13;0.90;;;1.70;99.90;;;;;;5090291;28;20086;-65
2022/02/02 18:36:38;;;;;;;6.40;1.40;;;2.10;99.90;;;;;;5091470;28;20041;-66
2022/02/02 18:46:31;;;;;;;3.92;1.20;;;2.10;99.90;;;;;;5090552;28;20036;-66
2022/02/02 18:49:59;;;;;;;5.80;1.15;;;2.10;99.90;;;;;;5108760;28;20118;-65
2022/02/02 19:07:12;;;;;;;5.57;1.30;;;1.90;99.90;;;;;;5083973;28;20035;-64
2022/02/02 20:01:46;;;;;;;5.32;1.67;;;1.60;99.90;;;;;;5098422;28;20039;-66
2022/02/02 20:04:08;;;;;;;7.07;1.50;;;1.70;99.90;;;;;;5088459;28;19922;-66
2022/02/02 20:10:59;;;;;;;7.28;1.73;;;1.70;99.90;;;;;;5104787;28;20049;-65
2022/02/02 20:14:06;;;;;;;11.85;2.17;;;1.70;99.90;;;;;;5101298;28;20056;-66
2022/02/02 20:17:33;;;;;;;3.50;1.23;;;1.80;99.90;;;;;;5105463;28;20036;-66
2022/02/02 20:20:59;;;;;;;5.07;1.15;;;1.80;99.90;;;;;;5106308;28;20077;-65
2022/02/02 20:24:26;;;;;;;2.85;1.10;;;1.70;99.90;;;;;;5088615;28;20079;-66
2022/02/02 20:27:54;;;;;;;8.45;1.40;;;1.70;99.90;;;;;;5100653;28;20164;-65
2022/02/02 20:31:13;;;;;;;5.65;1.48;;;1.70;99.90;;;;;;5098920;28;20063;-66
2022/02/02 20:34:38;;;;;;;2.05;1.00;;;1.70;99.90;;;;;;5108373;28;20088;-66
2022/02/02 20:38:03;;;;;;;5.47;1.10;;;1.70;99.90;;;;;;5105018;28;20173;-66
2022/02/02 20:41:29;;;;;;;5.13;1.13;;;1.60;99.90;;;;;;5100904;28;20076;-65
2022/02/02 21:01:11;;;;;;;3.90;1.27;;;1.20;99.90;;;;;;5088684;28;20119;-65
2022/02/02 21:10:11;;;;;;;6.63;1.05;;;1.40;99.90;;;;;;5088607;28;20047;-66
2022/02/02 21:13:50;;;;;;;5.40;1.30;;;1.40;99.90;;;;;;5103973;28;20036;-66
2022/02/02 21:17:17;;;;;;;7.35;0.98;;;1.30;99.90;;;;;;5103071;28;20162;-66
2022/02/02 21:20:41;;;;;;;6.22;1.08;;;1.20;99.90;;;;;;5109054;28;20046;-67
2022/02/02 21:27:38;;;;;;;5.65;1.08;;;1.40;99.90;;;;;;5081449;28;20561;-66
2022/02/02 21:30:56;;;;;;;7.50;2.10;;;1.60;99.90;;;;;;5091751;28;20040;-66
2022/02/02 21:34:23;;;;;;;8.20;1.50;;;1.60;99.90;;;;;;5087399;28;20036;-66
2022/02/02 21:37:49;;;;;;;6.97;0.98;;;1.50;99.90;;;;;;5088943;28;20100;-66
2022/02/02 21:41:17;;;;;;;7.30;1.10;;;1.30;99.90;;;;;;5104370;28;20067;-66
2022/02/02 21:44:37;;;;;;;3.80;1.05;;;1.20;99.90;;;;;;5103207;28;20070;-67
2022/02/02 21:48:02;;;;;;;6.05;1.20;;;1.10;99.90;;;;;;5089332;28;20032;-66
2022/02/02 21:51:35;;;;;;;2.47;0.75;;;1.00;99.90;;;;;;5106822;28;20085;-66
2022/02/02 21:54:36;;;;;;;;;;;0.90;99.90;;;;;;5100817;28;20067;-66
2022/02/02 21:58:01;;;;;;;3.88;0.90;;;0.90;99.90;;;;;;5089224;28;19904;-66
2022/02/02 22:01:27;;;;;;;3.13;1.05;;;0.80;99.90;;;;;;5106179;28;20628;-66
2022/02/02 22:04:52;;;;;;;6.38;2.10;;;0.80;99.90;;;;;;5101353;28;20072;-67
2022/02/02 22:08:17;;;;;;;4.85;1.10;;;0.70;99.90;;;;;;5088811;28;20400;-66
2022/02/02 22:11:43;;;;;;;4.53;1.00;;;0.70;99.90;;;;;;5089081;28;20064;-66
2022/02/02 22:15:11;;;;;;;5.07;1.05;;;0.60;99.90;;;;;;5095077;28;20036;-66
2022/02/02 22:18:34;;;;;;;6.18;0.90;;;0.50;99.90;;;;;;5108518;28;20088;-66
2022/02/02 22:21:59;;;;;;;3.53;1.00;;;0.50;99.90;;;;;;5079146;28;20058;-66
2022/02/02 22:25:24;;;;;;;5.80;1.40;;;0.50;99.90;;;;;;5074063;28;20447;-66
2022/02/02 22:28:50;;;;;;;4.88;1.38;;;0.40;99.90;;;;;;5080596;28;20036;-65
2022/02/02 22:32:15;;;;;;;5.38;0.85;;;0.40;99.90;;;;;;5082687;28;20043;-66
2022/02/02 22:35:40;;;;;;;8.25;1.25;;;0.40;99.90;;;;;;5080996;28;20441;-65
2022/02/02 22:39:09;;;;;;;6.85;1.02;;;0.30;99.90;;;;;;5082777;28;20035;-66
2022/02/02 22:42:32;;;;;;;6.38;1.30;;;0.20;99.90;;;;;;5088168;28;20024;-67
2022/02/02 22:45:56;;;;;;;9.45;1.40;;;0.10;99.90;;;;;;5069305;28;20048;-67
2022/02/02 22:49:22;;;;;;;9.23;1.98;;;0.10;99.90;;;;;;5083881;28;20068;-66
2022/02/02 22:52:50;;;;;;;4.65;1.05;;;0.00;99.90;;;;;;5087959;28;20036;-66
2022/02/02 22:56:12;;;;;;;3.70;0.95;;;-0.10;99.90;;;;;;5083023;28;20079;-67
2022/02/02 22:59:41;;;;;;;3.58;1.02;;;-0.10;99.90;;;;;;5080240;28;20024;-67
2022/02/02 23:03:04;;;;;;;13.93;1.77;;;-0.10;99.90;;;;;;5068180;28;20581;-67
2022/02/02 23:06:29;;;;;;;2.90;0.90;;;-0.20;99.90;;;;;;5085199;28;20093;-67
2022/02/02 23:09:56;;;;;;;5.38;1.10;;;-0.20;99.90;;;;;;5080185;28;20036;-67
2022/02/02 23:13:20;;;;;;;8.00;1.15;;;-0.20;99.90;;;;;;5067697;28;20148;-66
2022/02/02 23:16:47;;;;;;;5.60;0.85;;;-0.30;99.90;;;;;;5081933;28;20047;-66
2022/02/02 23:20:10;;;;;;;1.77;0.50;;;-0.30;99.90;;;;;;5084544;28;20075;-66
2022/02/02 23:23:35;;;;;;;6.93;0.88;;;-0.40;99.90;;;;;;5083792;28;20044;-67
2022/02/02 23:27:01;;;;;;;4.93;0.90;;;-0.40;99.90;;;;;;5102839;28;20118;-68
2022/02/02 23:30:26;;;;;;;5.05;1.10;;;-0.40;99.90;;;;;;5103862;28;20084;-67
2022/02/02 23:33:51;;;;;;;8.18;1.20;;;-0.40;99.90;;;;;;5101915;28;20043;-67
2022/02/02 23:37:17;;;;;;;6.60;1.20;;;-0.50;99.90;;;;;;5101545;28;20410;-68
2022/02/02 23:41:44;;;;;;;7.53;1.45;;;-0.50;99.90;;;;;;5103348;28;20039;-66
2022/02/02 23:44:10;;;;;;;6.43;1.02;;;-0.50;99.90;;;;;;5096510;28;20597;-65
2022/02/02 23:47:37;;;;;;;6.95;1.23;;;-0.60;99.90;;;;;;5104175;28;20031;-66
2022/02/02 23:51:06;;;;;;;9.20;1.17;;;-0.50;99.90;;;;;;5103193;28;20035;-66
2022/02/02 23:54:26;;;;;;;6.68;0.93;;;-0.60;99.90;;;;;;5102008;28;20076;-66
